Time;durP1;ratioP1;P1;durP2;ratioP2;P2;SDS_P1;SDS_P2;PMS_P1;PMS_P2;Temp;Humidity;BMP_temperature;BMP_pressure;BME280_temperature;BME280_humidity;BME280_pressure;Samples;Min_cycle;Max_cycle;Signal;HPM_P1;HPM_P2
2023/04/25 00:00:43;;;;;;;5.37;2.13;;;;;;;15.12;74.15;99861.53;5057276;28;20086;-72
2023/04/25 00:03:08;;;;;;;5.83;2.20;;;;;;;15.13;74.22;99856.19;5057365;28;20052;-72
2023/04/25 00:05:36;;;;;;;6.88;2.50;;;;;;;15.11;74.65;99850.06;5057062;28;20040;-72
2023/04/25 00:08:02;;;;;;;7.15;2.10;;;;;;;15.10;74.44;99847.44;5057164;28;20393;-72
2023/04/25 00:10:28;;;;;;;7.10;2.23;;;;;;;15.11;74.65;99844.75;5047336;28;20025;-72
2023/04/25 00:12:53;;;;;;;6.15;2.10;;;;;;;15.11;74.59;99839.47;5051953;28;20021;-72
2023/04/25 00:15:19;;;;;;;7.20;1.93;;;;;;;15.15;74.59;99838.44;5057114;28;20021;-72
2023/04/25 00:17:45;;;;;;;5.37;2.00;;;;;;;15.15;74.69;99838.44;5041644;28;20029;-72
2023/04/25 00:20:11;;;;;;;8.38;2.28;;;;;;;15.18;74.54;99826.84;5057494;28;20123;-72
2023/04/25 00:22:39;;;;;;;8.27;2.33;;;;;;;15.18;74.51;99822.44;5055602;28;20040;-72
2023/04/25 00:25:06;;;;;;;9.50;2.40;;;;;;;15.15;74.79;99822.53;5057037;28;20036;-72
2023/04/25 00:27:31;;;;;;;6.83;2.00;;;;;;;15.11;74.80;99818.25;5038564;28;20219;-72
2023/04/25 00:29:56;;;;;;;6.53;2.17;;;;;;;15.10;74.79;99816.50;5056816;28;20132;-72
2023/04/25 00:32:22;;;;;;;5.10;1.80;;;;;;;15.10;74.97;99823.56;5056678;28;20037;-72
2023/04/25 00:34:47;;;;;;;6.10;1.47;;;;;;;15.13;74.90;99819.06;5056931;28;20028;-72
2023/04/25 00:37:13;;;;;;;4.73;1.50;;;;;;;15.14;75.01;99823.44;5056682;28;20061;-73
2023/04/25 00:39:38;;;;;;;7.07;1.70;;;;;;;15.17;74.98;99827.78;5056670;28;20037;-73
2023/04/25 00:42:05;;;;;;;5.10;1.57;;;;;;;15.17;74.97;99820.69;5056343;28;20618;-73
2023/04/25 00:44:32;;;;;;;5.25;1.20;;;;;;;15.16;74.91;99832.22;5056751;28;20029;-73
2023/04/25 00:46:57;;;;;;;6.30;1.35;;;;;;;15.14;75.06;99830.53;5056591;28;20060;-72
2023/04/25 00:49:23;;;;;;;4.13;1.00;;;;;;;15.12;75.29;99825.28;5056796;28;20036;-72
2023/04/25 00:51:48;;;;;;;4.82;1.00;;;;;;;15.08;75.44;99818.34;5038745;28;20033;-73
2023/04/25 00:54:14;;;;;;;6.03;1.00;;;;;;;15.07;75.31;99822.75;5056666;28;20029;-72
2023/04/25 00:56:40;;;;;;;4.53;1.00;;;;;;;15.06;75.26;99825.44;5038668;28;20036;-72
2023/04/25 00:59:05;;;;;;;4.55;0.90;;;;;;;15.06;75.57;99825.44;5056416;28;20026;-72
2023/04/25 01:01:31;;;;;;;2.80;0.67;;;;;;;15.03;75.46;99820.22;5056263;28;20500;-73
2023/04/25 01:03:58;;;;;;;6.27;1.10;;;;;;;15.02;75.57;99815.84;5056185;28;20505;-73
2023/04/25 01:06:24;;;;;;;3.43;0.60;;;;;;;15.01;75.37;99817.66;5056354;28;20743;-73
2023/04/25 01:08:49;;;;;;;2.75;0.63;;;;;;;14.99;75.54;99815.94;5056831;28;20093;-73
2023/04/25 01:11:15;;;;;;;3.17;0.60;;;;;;;14.98;75.85;99806.25;5056333;28;20025;-73
2023/04/25 01:13:40;;;;;;;2.23;0.50;;;;;;;14.95;75.76;99811.66;5056315;28;20035;-73
2023/04/25 01:16:06;;;;;;;2.63;0.50;;;;;;;14.95;75.91;99807.22;5056398;28;20025;-73
2023/04/25 01:18:31;;;;;;;2.50;0.50;;;;;;;14.96;75.67;99808.97;5056215;28;20082;-73
2023/04/25 01:21:07;;;;;;;3.42;0.60;;;;;;;14.92;75.99;99810.81;5056599;28;20029;-73
2023/04/25 01:23:33;;;;;;;3.63;0.50;;;;;;;14.93;75.92;99816.97;5056241;28;20086;-72
2023/04/25 01:25:58;;;;;;;3.63;0.60;;;;;;;14.94;76.01;99818.72;5056100;28;20033;-73
2023/04/25 01:28:24;;;;;;;2.65;0.40;;;;;;;14.96;75.81;99818.69;5055872;28;20036;-73
2023/04/25 01:30:51;;;;;;;2.90;0.50;;;;;;;14.97;75.77;99810.69;5055699;28;20029;-73
2023/04/25 01:33:17;;;;;;;2.83;0.40;;;;;;;14.95;75.88;99812.53;5038336;28;20060;-73
2023/04/25 01:35:43;;;;;;;2.70;0.40;;;;;;;14.96;75.84;99816.91;5038306;28;20061;-73
2023/04/25 01:38:08;;;;;;;1.63;0.30;;;;;;;14.93;75.98;99815.22;5055878;28;20064;-73
2023/04/25 01:40:37;;;;;;;2.33;0.50;;;;;;;14.92;75.82;99813.47;5056060;28;20078;-73
2023/04/25 01:43:02;;;;;;;3.45;0.40;;;;;;;14.92;75.80;99817.91;5055963;28;20068;-73
2023/04/25 01:45:27;;;;;;;4.20;0.50;;;;;;;14.91;75.94;99814.41;5055765;28;20052;-73
2023/04/25 01:47:53;;;;;;;2.77;0.47;;;;;;;14.89;75.96;99813.56;5056035;28;20557;-73
2023/04/25 01:50:19;;;;;;;3.77;0.40;;;;;;;14.87;76.16;99802.16;5056064;28;20032;-72
2023/04/25 01:52:44;;;;;;;3.40;0.40;;;;;;;14.87;76.35;99812.75;5059901;28;20029;-73
2023/04/25 01:55:10;;;;;;;2.78;0.73;;;;;;;14.86;76.59;99802.19;5059786;28;20119;-72
2023/04/25 01:57:36;;;;;;;3.47;0.50;;;;;;;14.85;76.30;99801.31;5059680;28;20028;-72
2023/04/25 02:00:04;;;;;;;3.00;0.50;;;;;;;14.84;76.37;99799.59;5059427;28;20392;-72
2023/04/25 02:02:30;;;;;;;2.10;0.45;;;;;;;14.84;76.33;99804.88;5059600;28;20025;-72
2023/04/25 02:04:56;;;;;;;2.97;0.30;;;;;;;14.84;76.28;99802.25;5059438;28;20045;-72
2023/04/25 02:07:21;;;;;;;3.40;0.40;;;;;;;14.84;76.65;99799.59;5059614;28;20098;-73
2023/04/25 02:09:47;;;;;;;2.95;0.40;;;;;;;14.83;76.41;99797.84;5059488;28;20048;-73
2023/04/25 02:12:12;;;;;;;2.00;0.40;;;;;;;14.83;76.37;99799.63;5059290;28;20029;-73
2023/04/25 02:14:37;;;;;;;2.90;0.30;;;;;;;14.82;76.43;99793.44;5059345;28;20029;-72
2023/04/25 02:17:03;;;;;;;3.00;0.47;;;;;;;14.84;76.44;99802.25;5041614;28;20036;-73
2023/04/25 02:19:29;;;;;;;2.70;0.40;;;;;;;14.85;76.42;99797.78;5059735;28;20024;-73
2023/04/25 02:21:54;;;;;;;2.30;0.40;;;;;;;14.79;76.66;99796.19;5041593;28;20518;-72
2023/04/25 02:24:20;;;;;;;4.70;0.38;;;;;;;14.81;76.74;99796.16;5058986;28;20025;-72
2023/04/25 02:26:46;;;;;;;1.63;0.30;;;;;;;14.80;76.61;99789.13;5059303;28;20060;-73
2023/04/25 02:29:12;;;;;;;1.27;0.20;;;;;;;14.79;76.73;99796.19;5041023;28;20436;-73
2023/04/25 02:31:37;;;;;;;2.10;0.30;;;;;;;14.75;76.61;99783.94;5058994;28;20118;-73
2023/04/25 02:34:03;;;;;;;1.43;0.23;;;;;;;14.74;76.36;99783.09;5059213;28;20060;-73
2023/04/25 02:36:30;;;;;;;1.58;0.20;;;;;;;14.75;76.86;99784.81;5040914;28;20072;-73
2023/04/25 02:38:55;;;;;;;1.43;0.30;;;;;;;14.76;77.04;99785.66;5059268;28;20060;-73
2023/04/25 02:41:20;;;;;;;1.73;0.30;;;;;;;14.79;76.17;99796.19;5041110;28;20082;-73
2023/04/25 02:43:46;;;;;;;1.43;0.20;;;;;;;14.78;76.58;99790.03;5058837;28;20040;-73
2023/04/25 02:46:11;;;;;;;1.60;0.30;;;;;;;14.77;76.41;99788.28;5059049;28;20071;-73
2023/04/25 02:48:37;;;;;;;1.50;0.30;;;;;;;14.80;76.51;99786.47;5058629;28;21366;-73
2023/04/25 02:51:02;;;;;;;3.83;0.30;;;;;;;14.79;76.38;99790.88;5059212;28;20035;-73
2023/04/25 02:53:27;;;;;;;1.60;0.20;;;;;;;14.78;76.46;99783.84;5059095;28;20043;-73
2023/04/25 02:55:53;;;;;;;1.67;0.20;;;;;;;14.78;76.50;99783.84;5058863;28;20108;-73
2023/04/25 02:58:19;;;;;;;1.92;0.30;;;;;;;14.81;76.60;99793.50;5040606;28;20025;-73
2023/04/25 03:00:44;;;;;;;1.50;0.20;;;;;;;14.78;76.47;99783.84;5058505;28;20037;-73
2023/04/25 03:03:10;;;;;;;2.10;0.20;;;;;;;14.77;76.50;99784.75;5058519;28;20052;-73
2023/04/25 03:05:36;;;;;;;1.33;0.20;;;;;;;14.74;76.70;99783.09;5058324;28;20049;-73
2023/04/25 03:08:01;;;;;;;1.80;0.27;;;;;;;14.75;76.68;99781.28;5057567;28;20033;-73
2023/04/25 03:10:26;;;;;;;1.55;0.22;;;;;;;14.73;76.75;99781.34;5040537;28;20400;-73
2023/04/25 03:12:52;;;;;;;1.97;0.30;;;;;;;14.72;76.64;99781.38;5058163;28;20238;-73
2023/04/25 03:15:18;;;;;;;2.50;0.30;;;;;;;14.71;76.71;99777.88;5058496;28;20326;-73
2023/04/25 03:17:43;;;;;;;1.75;0.28;;;;;;;14.73;76.84;99781.34;5040772;28;20029;-73
2023/04/25 03:20:10;;;;;;;1.77;0.20;;;;;;;14.72;76.75;99779.63;5059345;28;20029;-73
2023/04/25 03:22:36;;;;;;;2.08;0.20;;;;;;;14.73;76.84;99775.16;5058253;28;20025;-73
2023/04/25 03:25:01;;;;;;;2.60;0.27;;;;;;;14.72;76.84;99768.13;5058120;28;20032;-73
2023/04/25 03:27:26;;;;;;;1.30;0.20;;;;;;;14.74;76.73;99776.91;5057894;28;20421;-72
2023/04/25 03:29:52;;;;;;;2.77;0.30;;;;;;;14.75;76.78;99778.63;5058217;28;20511;-73
2023/04/25 03:32:17;;;;;;;1.70;0.30;;;;;;;14.74;76.86;99776.91;5057820;28;20489;-73
2023/04/25 03:34:42;;;;;;;1.40;0.27;;;;;;;14.74;76.63;99771.59;5040195;28;20056;-73
2023/04/25 03:37:08;;;;;;;1.20;0.20;;;;;;;14.75;76.71;99768.03;5058067;28;20029;-73
2023/04/25 03:39:33;;;;;;;1.50;0.27;;;;;;;14.76;76.58;99767.13;5058281;28;20060;-73
2023/04/25 03:41:58;;;;;;;1.63;0.30;;;;;;;14.77;76.53;99753.84;5039999;28;20029;-73
2023/04/25 03:44:24;;;;;;;2.08;0.50;;;;;;;14.76;76.39;99754.75;5057707;28;20029;-73
2023/04/25 03:46:49;;;;;;;1.20;0.20;;;;;;;14.77;76.56;99752.94;5039874;28;20028;-73
2023/04/25 03:49:15;;;;;;;2.60;0.30;;;;;;;14.76;76.87;99753.88;5057914;28;20025;-73
2023/04/25 03:51:41;;;;;;;2.08;0.30;;;;;;;14.75;76.83;99752.13;5057791;28;20442;-73
2023/04/25 03:54:07;;;;;;;1.73;0.30;;;;;;;14.74;76.62;99750.41;5057703;28;20017;-73
2023/04/25 03:56:32;;;;;;;2.13;0.40;;;;;;;14.75;76.86;99752.13;5039790;28;20055;-73
2023/04/25 03:58:57;;;;;;;2.20;0.30;;;;;;;14.75;76.76;99757.44;5057368;28;20029;-73
2023/04/25 04:01:23;;;;;;;1.50;0.30;;;;;;;14.76;76.85;99751.22;5026467;28;20026;-73
2023/04/25 04:03:48;;;;;;;2.28;0.30;;;;;;;14.75;76.95;99753.00;5057348;28;20179;-73
2023/04/25 04:06:14;;;;;;;4.70;0.30;;;;;;;14.73;76.84;99753.97;5056183;28;20112;-73
2023/04/25 04:08:40;;;;;;;1.50;0.30;;;;;;;14.74;76.97;99745.09;5057487;28;20025;-73
2023/04/25 04:11:06;;;;;;;2.43;0.40;;;;;;;14.73;76.88;99746.91;5057483;28;20039;-73
2023/04/25 04:13:31;;;;;;;1.40;0.30;;;;;;;14.71;76.92;99750.50;5056767;28;20021;-73
2023/04/25 04:15:57;;;;;;;2.40;0.38;;;;;;;14.73;76.76;99751.31;5057177;28;20013;-73
2023/04/25 04:18:22;;;;;;;2.17;0.40;;;;;;;14.73;76.96;99744.25;5057151;28;20601;-73
2023/04/25 04:20:48;;;;;;;2.85;0.30;;;;;;;14.73;77.05;99741.59;5058857;28;20032;-73
2023/04/25 04:23:13;;;;;;;2.60;0.50;;;;;;;14.72;77.00;99731.03;5057036;28;20028;-73
2023/04/25 04:25:40;;;;;;;2.83;0.50;;;;;;;14.72;76.87;99731.91;5057203;28;20036;-73
2023/04/25 04:28:06;;;;;;;2.20;0.40;;;;;;;14.73;76.90;99731.00;5038673;28;20029;-73
2023/04/25 04:30:33;;;;;;;2.75;0.50;;;;;;;14.76;76.78;99732.66;5036360;28;20041;-73
2023/04/25 04:33:00;;;;;;;3.50;0.68;;;;;;;14.75;76.80;99730.94;5043931;28;20036;-73
2023/04/25 04:35:26;;;;;;;3.17;0.50;;;;;;;14.75;76.87;99737.13;5039210;28;20485;-73
2023/04/25 04:37:51;;;;;;;2.88;0.40;;;;;;;14.73;77.10;99727.47;5057149;28;20043;-73
2023/04/25 04:40:17;;;;;;;2.00;0.30;;;;;;;14.72;77.02;99728.38;5039065;28;20036;-73
2023/04/25 04:42:45;;;;;;;2.35;0.40;;;;;;;14.72;76.97;99731.03;5056999;28;20082;-73
2023/04/25 04:45:12;;;;;;;4.70;0.40;;;;;;;14.72;77.28;99731.03;5038777;28;20025;-73
2023/04/25 04:47:39;;;;;;;2.50;0.40;;;;;;;14.73;77.34;99732.75;5038923;28;20043;-73
2023/04/25 04:50:09;;;;;;;3.35;0.52;;;;;;;14.70;77.36;99733.69;5057094;28;20036;-72
2023/04/25 04:52:35;;;;;;;2.97;0.40;;;;;;;14.71;77.55;99731.94;5056679;28;20025;-73
2023/04/25 04:55:02;;;;;;;2.03;0.40;;;;;;;14.70;77.49;99731.03;5056870;28;20104;-72
2023/04/25 04:57:28;;;;;;;2.40;0.43;;;;;;;14.72;77.39;99737.22;5056751;28;20029;-72
2023/04/25 04:59:53;;;;;;;2.28;0.50;;;;;;;14.73;77.46;99731.00;5038691;28;20024;-72
2023/04/25 05:02:18;;;;;;;2.90;0.50;;;;;;;14.73;77.47;99738.06;5056867;28;20495;-72
2023/04/25 05:04:44;;;;;;;3.20;0.60;;;;;;;14.72;77.58;99728.38;5056630;28;20045;-73
2023/04/25 05:07:10;;;;;;;2.60;0.60;;;;;;;14.73;77.53;99733.66;5056892;28;20032;-73
2023/04/25 05:09:35;;;;;;;2.53;0.60;;;;;;;14.74;77.51;99731.84;5056668;28;20312;-73
2023/04/25 05:12:01;;;;;;;2.20;0.40;;;;;;;14.74;77.65;99731.84;5038569;28;20021;-73
2023/04/25 05:14:26;;;;;;;3.60;0.70;;;;;;;14.74;77.58;99734.50;5056778;28;20032;-73
2023/04/25 05:16:51;;;;;;;3.63;0.50;;;;;;;14.75;77.55;99738.88;5048983;28;20519;-72
2023/04/25 05:19:17;;;;;;;1.93;0.40;;;;;;;14.74;77.68;99729.19;5038308;28;20485;-73
2023/04/25 05:21:43;;;;;;;2.83;0.50;;;;;;;14.76;77.74;99720.28;5036690;28;20112;-72
2023/04/25 05:24:08;;;;;;;3.47;0.57;;;;;;;14.78;77.59;99725.53;5046336;28;20025;-73
2023/04/25 05:26:34;;;;;;;3.00;0.60;;;;;;;14.79;77.56;99732.56;5040823;28;20028;-73
2023/04/25 05:28:59;;;;;;;3.40;0.50;;;;;;;14.77;77.67;99734.41;5030636;28;20036;-73
2023/04/25 05:31:25;;;;;;;4.78;0.70;;;;;;;14.78;77.59;99736.13;5043303;28;20026;-73
2023/04/25 05:33:51;;;;;;;3.63;0.60;;;;;;;14.79;77.77;99743.16;5040599;28;20056;-72
2023/04/25 05:36:18;;;;;;;5.53;1.20;;;;;;;14.81;77.70;99741.34;5040501;28;20025;-73
2023/04/25 05:38:44;;;;;;;2.70;0.50;;;;;;;14.83;77.69;99743.97;5042363;28;20031;-72
2023/04/25 05:41:09;;;;;;;4.47;0.80;;;;;;;14.84;77.57;99746.56;5053103;28;20029;-73
2023/04/25 05:43:35;;;;;;;3.13;0.77;;;;;;;14.85;77.70;99742.13;5045173;28;20052;-72
2023/04/25 05:46:00;;;;;;;4.53;0.80;;;;;;;14.89;77.68;99749.94;5040504;28;20025;-73
2023/04/25 05:48:25;;;;;;;3.43;0.50;;;;;;;14.88;77.76;99745.56;5046370;28;20030;-72
2023/04/25 05:50:51;;;;;;;3.20;0.60;;;;;;;14.88;77.77;99748.22;5040389;28;20043;-73
2023/04/25 05:53:17;;;;;;;3.58;0.70;;;;;;;14.89;78.06;99749.94;5040178;28;20025;-73
2023/04/25 05:55:42;;;;;;;4.30;0.70;;;;;;;14.91;77.95;99747.22;5040118;28;20045;-73
2023/04/25 05:58:08;;;;;;;3.40;0.60;;;;;;;14.92;78.02;99749.84;5039838;28;20041;-73
2023/04/25 06:00:33;;;;;;;2.77;0.60;;;;;;;14.93;77.81;99756.88;5049696;28;20099;-73
2023/04/25 06:02:59;;;;;;;6.27;0.67;;;;;;;14.93;77.97;99751.59;5039558;28;20030;-72
2023/04/25 06:05:24;;;;;;;3.00;0.67;;;;;;;14.93;78.23;99754.22;5051530;28;20033;-72
2023/04/25 06:07:50;;;;;;;4.65;0.70;;;;;;;14.96;78.29;99752.41;5046574;28;20504;-74
2023/04/25 06:10:15;;;;;;;2.60;0.77;;;;;;;14.95;78.24;99753.31;5052987;28;20025;-70
2023/04/25 06:12:41;;;;;;;2.73;0.60;;;;;;;14.97;77.91;99751.50;5039387;28;20037;-72
2023/04/25 06:15:07;;;;;;;2.95;0.63;;;;;;;14.97;78.45;99751.50;5039559;28;20026;-72
2023/04/25 06:17:33;;;;;;;4.37;0.80;;;;;;;14.97;78.23;99743.53;5047825;28;20041;-72
2023/04/25 06:19:58;;;;;;;3.10;0.70;;;;;;;15.00;77.97;99751.38;5028624;28;20036;-72
2023/04/25 06:22:23;;;;;;;3.20;0.80;;;;;;;15.01;78.13;99743.41;5046584;28;20026;-73
2023/04/25 06:24:49;;;;;;;2.87;0.80;;;;;;;15.02;78.42;99741.59;5045492;28;20031;-72
2023/04/25 06:27:14;;;;;;;3.58;0.80;;;;;;;15.04;78.28;99738.00;5058091;28;20174;-71
2023/04/25 06:29:39;;;;;;;3.83;0.80;;;;;;;15.08;77.98;99736.13;5032020;28;20497;-72
2023/04/25 06:32:05;;;;;;;2.90;0.70;;;;;;;15.13;77.98;99746.56;5029047;28;20398;-71
2023/04/25 06:34:30;;;;;;;4.80;0.80;;;;;;;15.17;78.27;99738.47;5055481;28;20068;-71
2023/04/25 06:36:56;;;;;;;3.63;0.60;;;;;;;15.20;78.22;99742.84;5043052;28;20033;-71
2023/04/25 06:39:23;;;;;;;4.18;0.70;;;;;;;15.23;78.27;99741.84;5039526;28;20029;-71
2023/04/25 06:41:48;;;;;;;3.93;0.80;;;;;;;15.26;78.37;99742.63;5037907;28;20036;-72
2023/04/25 06:44:15;;;;;;;4.13;0.65;;;;;;;15.26;78.43;99732.03;5038131;28;20025;-72
2023/04/25 06:46:40;;;;;;;3.55;0.90;;;;;;;15.30;78.25;99732.78;5038803;28;20040;-72
2023/04/25 06:49:05;;;;;;;3.13;0.60;;;;;;;15.33;78.37;99727.41;5038558;28;20029;-72
2023/04/25 06:51:31;;;;;;;5.83;0.90;;;;;;;15.38;78.16;99730.75;5038994;28;20029;-72
2023/04/25 06:53:56;;;;;;;4.75;0.88;;;;;;;15.40;78.16;99728.91;5038934;28;20030;-72
2023/04/25 06:56:23;;;;;;;3.90;0.80;;;;;;;15.40;78.08;99734.22;5038779;28;20029;-72
2023/04/25 06:58:48;;;;;;;3.17;0.70;;;;;;;15.41;78.05;99738.63;5038645;28;20432;-72
2023/04/25 07:01:14;;;;;;;4.67;0.90;;;;;;;15.41;78.02;99740.38;5041592;28;20037;-72
2023/04/25 07:03:39;;;;;;;4.87;0.80;;;;;;;15.41;78.17;99740.38;5038678;28;20037;-72
2023/04/25 07:06:05;;;;;;;3.87;1.00;;;;;;;15.39;78.03;99745.75;5038826;28;20070;-72
2023/04/25 07:08:30;;;;;;;3.88;0.90;;;;;;;15.36;78.36;99749.38;5025786;28;20049;-72
2023/04/25 07:10:55;;;;;;;5.13;1.33;;;;;;;15.36;78.26;99749.38;5046898;28;20025;-72
2023/04/25 07:13:21;;;;;;;5.53;1.07;;;;;;;15.35;78.22;99752.09;5038329;28;20056;-72
2023/04/25 07:15:47;;;;;;;4.57;1.00;;;;;;;15.32;78.47;99747.72;5041472;28;20021;-71
2023/04/25 07:18:13;;;;;;;3.58;0.98;;;;;;;15.29;78.70;99762.88;5027341;28;20147;-71
2023/04/25 07:20:39;;;;;;;3.50;0.90;;;;;;;15.29;78.66;99765.53;5029547;28;20034;-71
2023/04/25 07:23:04;;;;;;;4.73;1.10;;;;;;;15.29;79.00;99763.75;5038376;28;20021;-71
2023/04/25 07:25:30;;;;;;;3.10;0.80;;;;;;;15.31;78.80;99767.22;5037066;28;20113;-71
2023/04/25 07:27:56;;;;;;;4.50;0.98;;;;;;;15.34;78.52;99771.56;5051392;28;20017;-71
2023/04/25 07:30:22;;;;;;;3.90;1.00;;;;;;;15.31;78.78;99775.19;5041314;28;20036;-71
2023/04/25 07:32:48;;;;;;;3.47;1.17;;;;;;;15.32;78.63;99778.72;5039713;28;20021;-71
2023/04/25 07:35:13;;;;;;;3.72;0.90;;;;;;;15.30;78.83;99780.50;5038332;28;20026;-71
2023/04/25 07:37:39;;;;;;;5.20;1.00;;;;;;;15.30;79.02;99785.81;5038126;28;20040;-71
2023/04/25 07:40:05;;;;;;;3.78;1.00;;;;;;;15.33;78.82;99776.00;5044491;28;20029;-71
2023/04/25 07:42:30;;;;;;;3.77;1.00;;;;;;;15.40;78.97;99770.47;5021257;28;20025;-71
2023/04/25 07:44:56;;;;;;;4.10;1.02;;;;;;;15.45;78.87;99766.78;5050055;28;20021;-71
2023/04/25 07:47:21;;;;;;;4.47;0.80;;;;;;;15.56;78.77;99765.56;5057674;28;20151;-71
2023/04/25 07:49:47;;;;;;;4.23;0.60;;;;;;;15.63;78.62;99770.59;5057232;28;20048;-71
2023/04/25 07:52:12;;;;;;;4.50;1.00;;;;;;;15.64;78.48;99775.00;5039987;28;20029;-72
2023/04/25 07:54:38;;;;;;;3.33;0.70;;;;;;;15.63;78.42;99789.19;5057750;28;20017;-71
2023/04/25 07:57:03;;;;;;;3.93;0.70;;;;;;;15.61;77.97;99784.88;5039655;28;20055;-71
2023/04/25 07:59:29;;;;;;;1.57;0.30;;;;;;;15.52;77.50;99801.06;5056933;28;20025;-71
2023/04/25 08:01:54;;;;;;;1.63;0.25;;;;;;;15.39;77.06;99805.88;5037590;28;20512;-71
2023/04/25 08:04:20;;;;;;;2.40;0.30;;;;;;;15.28;77.01;99803.56;5037619;28;20048;-71
2023/04/25 08:06:46;;;;;;;1.10;0.20;;;;;;;15.18;76.54;99810.94;5037690;28;20494;-72
2023/04/25 08:09:11;;;;;;;1.30;0.20;;;;;;;15.06;76.59;99820.13;5048429;28;20381;-71
2023/04/25 08:11:37;;;;;;;2.60;0.30;;;;;;;14.92;76.40;99823.19;5039912;28;20063;-71
2023/04/25 08:14:02;;;;;;;2.28;0.40;;;;;;;14.84;76.57;99823.44;5057072;28;20604;-72
2023/04/25 08:16:28;;;;;;;2.70;0.30;;;;;;;14.82;76.96;99819.94;5035112;28;20033;-72
2023/04/25 08:18:54;;;;;;;2.75;0.60;;;;;;;14.81;76.92;99822.66;5037469;28;20021;-71
2023/04/25 08:21:20;;;;;;;2.43;0.50;;;;;;;14.80;76.67;99824.41;5036857;28;20029;-71
2023/04/25 08:23:45;;;;;;;2.65;0.60;;;;;;;14.80;76.38;99821.78;5037378;28;20516;-72
2023/04/25 08:26:11;;;;;;;3.35;0.60;;;;;;;14.82;76.40;99822.59;5054675;28;20114;-71
2023/04/25 08:28:36;;;;;;;3.80;0.70;;;;;;;14.84;76.17;99831.41;5028258;28;20057;-71
2023/04/25 08:31:02;;;;;;;3.70;0.70;;;;;;;14.85;76.23;99833.13;5041565;28;20485;-71
2023/04/25 08:33:27;;;;;;;2.33;0.60;;;;;;;14.89;75.97;99840.09;5037240;28;20074;-71
2023/04/25 08:35:53;;;;;;;3.47;0.70;;;;;;;14.90;76.00;99846.25;5037146;28;20029;-71
2023/04/25 08:38:19;;;;;;;3.37;0.67;;;;;;;14.85;75.84;99854.34;5037148;28;20029;-71
2023/04/25 08:40:51;;;;;;;2.53;0.40;;;;;;;14.82;75.72;99864.16;5044950;28;20485;-71
2023/04/25 08:43:19;;;;;;;2.20;0.40;;;;;;;14.77;75.69;99859.84;5037143;28;20032;-71
2023/04/25 08:45:44;;;;;;;2.00;0.40;;;;;;;14.72;75.78;99880.31;5036773;28;20018;-72
2023/04/25 08:48:15;;;;;;;2.78;0.55;;;;;;;14.63;75.69;99889.34;5035556;28;20037;-71
2023/04/25 08:50:53;;;;;;;2.87;0.60;;;;;;;14.61;75.67;99888.53;5037168;28;20025;-72
2023/04/25 08:53:30;;;;;;;3.47;0.82;;;;;;;14.60;75.75;99892.09;5037025;28;20025;-72
2023/04/25 08:55:57;;;;;;;4.00;0.60;;;;;;;14.66;76.08;99903.44;5037273;28;20028;-71
2023/04/25 08:58:23;;;;;;;4.57;0.75;;;;;;;14.67;75.75;99902.53;5036797;28;20533;-72
2023/04/25 09:00:49;;;;;;;2.97;0.70;;;;;;;14.71;75.72;99912.16;5039393;28;20460;-72
2023/04/25 09:03:15;;;;;;;4.43;0.98;;;;;;;14.70;75.54;99913.88;5036961;28;20032;-71
2023/04/25 09:05:41;;;;;;;3.03;0.50;;;;;;;14.68;75.27;99914.84;5036724;28;20080;-71
2023/04/25 09:08:07;;;;;;;3.40;0.70;;;;;;;14.69;74.95;99912.16;5038387;28;20477;-72
2023/04/25 09:10:33;;;;;;;5.18;0.60;;;;;;;14.72;74.99;99921.84;5056550;28;20028;-71
2023/04/25 09:13:11;;;;;;;3.28;0.80;;;;;;;14.72;75.09;99919.19;5056437;28;20028;-72
2023/04/25 09:15:51;;;;;;;3.03;0.65;;;;;;;14.78;74.47;99925.22;5056573;28;20018;-71
2023/04/25 09:18:27;;;;;;;2.43;0.57;;;;;;;14.76;74.47;99926.16;5036886;28;20029;-71
2023/04/25 09:21:16;;;;;;;4.45;0.70;;;;;;;14.76;74.30;99923.50;5063067;28;20512;-71
2023/04/25 09:23:47;;;;;;;2.78;0.70;;;;;;;14.74;74.18;99925.31;5036228;28;20490;-72
2023/04/25 09:26:17;;;;;;;3.00;0.80;;;;;;;14.73;74.28;99928.88;5055000;28;20029;-71
2023/04/25 09:28:43;;;;;;;3.88;0.90;;;;;;;14.78;74.32;99934.94;5044947;28;20030;-72
2023/04/25 09:31:11;;;;;;;4.73;1.00;;;;;;;14.82;74.24;99935.72;5024813;28;20036;-72
2023/04/25 09:33:37;;;;;;;4.95;1.00;;;;;;;14.89;74.18;99943.47;5036600;28;20473;-72
2023/04/25 09:36:13;;;;;;;3.93;1.03;;;;;;;14.96;73.89;99940.66;5036723;28;20030;-72
2023/04/25 09:38:46;;;;;;;3.50;1.00;;;;;;;15.03;74.22;99942.22;5018673;28;20482;-72
2023/04/25 09:41:12;;;;;;;5.05;1.00;;;;;;;15.13;73.98;99946.38;5044229;28;20087;-71
2023/04/25 09:43:38;;;;;;;2.42;0.70;;;;;;;15.15;73.61;99957.78;5036410;28;20029;-72
2023/04/25 09:46:14;;;;;;;4.00;1.20;;;;;;;15.10;73.52;99954.41;5036244;28;20547;-72
2023/04/25 09:48:39;;;;;;;4.47;1.50;;;;;;;15.02;73.64;99957.25;5034951;28;20052;-71
2023/04/25 09:51:15;;;;;;;4.45;1.50;;;;;;;14.98;74.03;99962.69;5036741;28;20036;-72
2023/04/25 09:53:43;;;;;;;4.87;1.37;;;;;;;14.91;74.28;99960.22;5036406;28;20044;-72
2023/04/25 09:56:10;;;;;;;3.85;1.02;;;;;;;14.90;74.05;99945.22;5036423;28;20028;-72
2023/04/25 09:58:37;;;;;;;4.95;1.30;;;;;;;14.91;74.39;99949.59;5036108;28;20072;-72
2023/04/25 10:01:07;;;;;;;3.72;1.30;;;;;;;14.95;74.36;99944.22;5038918;28;20029;-71
2023/04/25 10:03:39;;;;;;;4.45;1.15;;;;;;;14.99;74.35;99945.88;5036075;28;20060;-72
2023/04/25 10:06:10;;;;;;;4.37;0.60;;;;;;;14.99;74.00;99953.81;5051947;28;20044;-71
2023/04/25 10:08:37;;;;;;;2.83;0.50;;;;;;;15.03;73.87;99952.81;5056101;28;20020;-71
2023/04/25 10:11:05;;;;;;;3.47;0.77;;;;;;;15.04;74.03;99954.56;5042790;28;20044;-72
2023/04/25 10:13:31;;;;;;;3.72;0.88;;;;;;;15.09;74.14;99960.63;5039246;28;20515;-72
2023/04/25 10:15:59;;;;;;;3.03;0.73;;;;;;;15.16;74.05;99954.22;5041441;28;20033;-71
2023/04/25 10:18:28;;;;;;;6.10;0.90;;;;;;;15.25;73.77;99952.22;5039800;28;20029;-72
2023/04/25 10:21:06;;;;;;;3.65;0.70;;;;;;;15.35;73.68;99946.59;5048613;28;20055;-72
2023/04/25 10:23:32;;;;;;;2.50;0.63;;;;;;;15.45;73.39;99949.84;5039899;28;20433;-72
2023/04/25 10:25:58;;;;;;;4.25;0.70;;;;;;;15.54;73.49;99947.84;5055593;28;20041;-71
2023/04/25 10:28:24;;;;;;;3.40;0.70;;;;;;;15.60;73.32;99943.22;5049994;28;20039;-71
2023/04/25 10:31:08;;;;;;;4.97;0.70;;;;;;;15.67;73.11;99946.56;5044070;28;20025;-71
2023/04/25 10:33:41;;;;;;;3.38;0.60;;;;;;;15.75;73.13;99947.19;5039516;28;20044;-71
2023/04/25 10:36:17;;;;;;;3.45;0.57;;;;;;;15.82;73.14;99947.03;5039349;28;20025;-72
2023/04/25 10:38:43;;;;;;;3.00;0.60;;;;;;;15.86;72.73;99948.66;5039384;28;20116;-71
2023/04/25 10:41:10;;;;;;;2.63;0.60;;;;;;;15.87;72.59;99939.78;5047711;28;20397;-72
2023/04/25 10:43:43;;;;;;;2.92;0.70;;;;;;;15.85;72.61;99937.16;5039235;28;20048;-72
2023/04/25 10:46:19;;;;;;;2.60;0.50;;;;;;;15.81;72.27;99935.53;5039057;28;20036;-72
2023/04/25 10:48:55;;;;;;;3.15;0.65;;;;;;;15.72;72.10;99936.66;5039193;28;20025;-72
2023/04/25 10:51:23;;;;;;;2.83;0.52;;;;;;;15.60;72.79;99942.38;5039185;28;20091;-72
2023/04/25 10:53:55;;;;;;;2.70;0.70;;;;;;;15.57;72.86;99947.78;5039192;28;20037;-72
2023/04/25 10:56:22;;;;;;;3.05;0.90;;;;;;;15.57;73.24;99934.50;5039073;28;20029;-72
2023/04/25 10:58:48;;;;;;;3.40;0.90;;;;;;;15.55;73.24;99938.97;5020839;28;20093;-72
2023/04/25 11:01:15;;;;;;;2.90;0.75;;;;;;;15.56;73.25;99949.53;5030823;28;20032;-72
2023/04/25 11:03:45;;;;;;;2.70;0.80;;;;;;;15.58;73.18;99938.91;5058744;28;20036;-72
2023/04/25 11:06:45;;;;;;;2.80;0.63;;;;;;;15.59;72.60;99935.31;5040781;28;20029;-72
2023/04/25 11:09:15;;;;;;;2.95;0.63;;;;;;;15.66;73.01;99936.88;5040800;28;20082;-72
2023/04/25 11:11:40;;;;;;;2.90;0.73;;;;;;;15.74;72.94;99932.19;5040612;28;20037;-72
2023/04/25 11:14:06;;;;;;;3.00;0.80;;;;;;;15.84;72.94;99930.13;5038815;28;20516;-72
2023/04/25 11:16:32;;;;;;;2.90;0.77;;;;;;;15.97;72.45;99927.13;5041418;28;20078;-72
2023/04/25 11:18:58;;;;;;;4.93;0.90;;;;;;;16.07;72.35;99931.19;5038760;28;20397;-72
2023/04/25 11:21:26;;;;;;;3.63;0.75;;;;;;;16.17;72.43;99922.03;5040513;28;20482;-72
2023/04/25 11:23:51;;;;;;;2.85;0.70;;;;;;;16.25;72.06;99921.75;5038648;28;20500;-72
2023/04/25 11:26:19;;;;;;;2.53;0.50;;;;;;;16.30;71.80;99922.50;5038399;28;20461;-72
2023/04/25 11:28:45;;;;;;;2.15;0.40;;;;;;;16.26;71.38;99912.88;5046576;28;20018;-72
2023/04/25 11:31:10;;;;;;;3.20;0.30;;;;;;;16.24;71.21;99917.34;5042434;28;20485;-73